Time;durP1;ratioP1;P1;durP2;ratioP2;P2;SDS_P1;SDS_P2;PMS_P1;PMS_P2;Temp;Humidity;BMP_temperature;BMP_pressure;BME280_temperature;BME280_humidity;BME280_pressure;Samples;Min_cycle;Max_cycle;Signal;HPM_P1;HPM_P2
2024/02/07 00:00:22;;;;;;;12.15;1.85;;;5.00;99.90;;;;;;5111221;27;20043;-76
2024/02/07 00:02:48;;;;;;;13.93;1.63;;;5.00;99.90;;;;;;5106985;27;20046;-76
2024/02/07 00:05:13;;;;;;;10.07;2.20;;;5.00;99.90;;;;;;5127676;27;20065;-76
2024/02/07 00:07:40;;;;;;;12.43;1.95;;;5.00;99.90;;;;;;5126401;27;20066;-76
2024/02/07 00:10:06;;;;;;;8.77;1.75;;;5.00;99.90;;;;;;5127047;27;20113;-75
2024/02/07 00:12:32;;;;;;;14.57;2.00;;;5.00;99.90;;;;;;5127454;27;20046;-74
2024/02/07 00:14:58;;;;;;;12.38;2.20;;;5.00;99.90;;;;;;5127995;27;20039;-74
2024/02/07 00:17:23;;;;;;;10.13;1.58;;;5.00;99.90;;;;;;5108270;27;20046;-74
2024/02/07 00:19:50;;;;;;;9.50;1.40;;;5.00;99.90;;;;;;5111996;27;20058;-73
2024/02/07 00:22:16;;;;;;;11.65;2.35;;;5.00;99.90;;;;;;5124693;27;20123;-73
2024/02/07 00:24:42;;;;;;;10.75;2.28;;;5.00;99.90;;;;;;5128299;27;20246;-75
2024/02/07 00:27:08;;;;;;;12.65;2.10;;;5.00;99.90;;;;;;5105489;27;20530;-74
2024/02/07 00:29:34;;;;;;;11.07;2.08;;;5.00;99.90;;;;;;5107230;27;20038;-75
2024/02/07 00:32:00;;;;;;;9.43;1.83;;;5.00;99.90;;;;;;5122358;27;20035;-75
2024/02/07 00:34:25;;;;;;;9.82;1.85;;;5.00;99.90;;;;;;5126669;27;20082;-75
2024/02/07 00:36:51;;;;;;;10.07;1.75;;;5.00;99.90;;;;;;5107958;27;20288;-75
2024/02/07 00:39:18;;;;;;;14.82;2.72;;;5.00;99.90;;;;;;5124968;27;20400;-75
2024/02/07 00:41:44;;;;;;;12.45;2.20;;;5.00;99.90;;;;;;5110896;27;20062;-75
2024/02/07 00:44:10;;;;;;;9.73;2.15;;;5.00;99.90;;;;;;5124799;27;20522;-74
2024/02/07 00:46:36;;;;;;;9.13;1.90;;;5.10;99.90;;;;;;5109885;27;20569;-75
2024/02/07 00:49:05;;;;;;;9.05;1.92;;;5.00;99.90;;;;;;5110875;27;20307;-75
2024/02/07 00:51:34;;;;;;;10.93;2.17;;;5.00;99.90;;;;;;5126705;27;20403;-75
2024/02/07 00:54:00;;;;;;;10.30;1.70;;;5.00;99.90;;;;;;5124060;27;20400;-75
2024/02/07 00:56:25;;;;;;;13.85;2.20;;;5.00;99.90;;;;;;5107187;27;20042;-75
2024/02/07 00:58:51;;;;;;;10.05;2.00;;;5.00;99.90;;;;;;5103542;27;20042;-75
2024/02/07 01:01:19;;;;;;;10.85;1.98;;;5.00;99.90;;;;;;5124328;27;20048;-75
2024/02/07 01:03:45;;;;;;;11.30;2.30;;;5.00;99.90;;;;;;5124600;27;20039;-75
2024/02/07 01:06:11;;;;;;;12.57;2.42;;;5.00;99.90;;;;;;5124153;27;20440;-76
2024/02/07 01:08:37;;;;;;;11.63;2.20;;;5.00;99.90;;;;;;5128024;27;20042;-76
2024/02/07 01:11:03;;;;;;;12.05;1.80;;;5.00;99.90;;;;;;5107149;27;20042;-76
2024/02/07 01:13:29;;;;;;;10.48;1.65;;;5.00;99.90;;;;;;5109315;27;20027;-75
2024/02/07 01:15:54;;;;;;;12.55;2.30;;;5.00;99.90;;;;;;5109863;27;20374;-75
2024/02/07 01:18:20;;;;;;;13.65;1.85;;;5.00;99.90;;;;;;5111205;27;20077;-75
2024/02/07 01:20:46;;;;;;;8.50;1.55;;;5.00;99.90;;;;;;5126605;27;20043;-76
2024/02/07 01:23:11;;;;;;;12.23;2.25;;;5.00;99.90;;;;;;5124910;27;20242;-76
2024/02/07 01:25:37;;;;;;;8.80;1.73;;;5.00;99.90;;;;;;5109227;27;20043;-75
2024/02/07 01:28:04;;;;;;;10.20;1.50;;;5.00;99.90;;;;;;5107737;27;20665;-76
2024/02/07 01:30:33;;;;;;;9.18;1.92;;;5.00;99.90;;;;;;5104604;27;20031;-75
2024/02/07 01:32:59;;;;;;;9.68;1.70;;;5.00;99.90;;;;;;5121661;27;20035;-76
2024/02/07 01:35:26;;;;;;;14.90;2.22;;;5.10;99.90;;;;;;5115374;27;20054;-76
2024/02/07 01:37:52;;;;;;;11.93;2.20;;;5.00;99.90;;;;;;5119773;27;20054;-76
2024/02/07 01:40:19;;;;;;;11.68;2.05;;;5.00;99.90;;;;;;5125100;27;20086;-76
2024/02/07 01:42:45;;;;;;;12.95;2.30;;;5.00;99.90;;;;;;5094296;27;20027;-75
2024/02/07 01:45:33;;;;;;;13.35;2.30;;;5.00;99.90;;;;;;5123749;27;20560;-76
2024/02/07 01:47:59;;;;;;;11.57;1.90;;;5.00;99.90;;;;;;5106578;27;20042;-73
2024/02/07 01:50:26;;;;;;;9.23;1.65;;;5.00;99.90;;;;;;5106361;27;20035;-73
2024/02/07 01:52:55;;;;;;;13.00;2.05;;;5.00;99.90;;;;;;5121727;27;20047;-73
2024/02/07 01:55:21;;;;;;;12.45;2.35;;;5.00;99.90;;;;;;5128083;27;20532;-73
2024/02/07 01:57:50;;;;;;;11.48;1.88;;;5.00;99.90;;;;;;5125827;27;20125;-73
2024/02/07 02:00:17;;;;;;;11.25;1.83;;;5.00;99.90;;;;;;5107705;27;20048;-73
2024/02/07 02:02:46;;;;;;;11.45;2.15;;;5.00;99.90;;;;;;5122570;27;20050;-73
2024/02/07 02:05:13;;;;;;;13.00;1.77;;;5.00;99.90;;;;;;5127455;27;20046;-73
2024/02/07 02:07:39;;;;;;;9.07;1.77;;;5.00;99.90;;;;;;5109142;27;20050;-73
2024/02/07 02:10:05;;;;;;;8.38;1.30;;;5.00;99.90;;;;;;5124704;27;20060;-75
2024/02/07 02:12:32;;;;;;;10.68;1.50;;;5.00;99.90;;;;;;5128524;27;20073;-76
2024/02/07 02:14:58;;;;;;;11.35;2.25;;;5.00;99.90;;;;;;5131500;27;20039;-76
2024/02/07 02:17:24;;;;;;;11.30;1.75;;;5.00;99.90;;;;;;5109904;27;20404;-75
2024/02/07 02:19:50;;;;;;;14.25;1.77;;;4.90;99.90;;;;;;5126859;27;20038;-75
2024/02/07 02:22:34;;;;;;;13.43;2.03;;;5.00;99.90;;;;;;5116884;27;20089;-76
2024/02/07 02:25:12;;;;;;;13.23;1.80;;;5.00;99.90;;;;;;5125703;27;20065;-75
2024/02/07 02:27:38;;;;;;;8.35;1.75;;;5.00;99.90;;;;;;5124418;27;20058;-76
2024/02/07 02:30:19;;;;;;;11.38;2.28;;;5.00;99.90;;;;;;5112372;27;20042;-76
2024/02/07 02:32:48;;;;;;;9.43;2.17;;;5.00;99.90;;;;;;5109888;27;20150;-76
2024/02/07 02:35:18;;;;;;;9.48;1.98;;;4.90;99.90;;;;;;5107478;27;20043;-75
2024/02/07 02:37:49;;;;;;;8.55;2.05;;;5.10;99.90;;;;;;5124342;27;20054;-75
2024/02/07 02:40:15;;;;;;;11.35;1.88;;;5.00;99.90;;;;;;5132889;27;20489;-77
2024/02/07 02:42:43;;;;;;;15.23;2.42;;;5.00;99.90;;;;;;5115757;27;20031;-76
2024/02/07 02:45:09;;;;;;;14.35;2.67;;;5.00;99.90;;;;;;5128006;27;20030;-76
2024/02/07 02:47:35;;;;;;;14.57;2.65;;;5.00;99.90;;;;;;5127369;27;21972;-76
2024/02/07 02:50:04;;;;;;;12.13;1.92;;;5.00;99.90;;;;;;5130149;27;20034;-76
2024/02/07 02:52:31;;;;;;;13.93;2.75;;;5.00;99.90;;;;;;5113945;27;20187;-76
2024/02/07 02:54:57;;;;;;;18.10;3.15;;;5.00;99.90;;;;;;5112444;27;20046;-76
2024/02/07 02:57:23;;;;;;;14.20;2.38;;;5.10;99.90;;;;;;5116180;27;20171;-76
2024/02/07 02:59:49;;;;;;;16.33;2.90;;;5.00;99.90;;;;;;5110293;27;20114;-76
2024/02/07 03:02:19;;;;;;;15.15;2.88;;;5.10;99.90;;;;;;5108919;27;20508;-77
2024/02/07 03:04:49;;;;;;;13.52;3.22;;;5.00;99.90;;;;;;5111325;27;20111;-76
2024/02/07 03:07:36;;;;;;;16.60;2.70;;;5.10;99.90;;;;;;5109295;27;20217;-76
2024/02/07 03:10:04;;;;;;;18.35;3.28;;;5.10;99.90;;;;;;5126473;27;20038;-77
2024/02/07 03:12:31;;;;;;;13.10;2.72;;;5.10;99.90;;;;;;5110261;27;20397;-76
2024/02/07 03:14:58;;;;;;;12.93;3.00;;;5.10;99.90;;;;;;5106094;27;20099;-75
2024/02/07 03:17:23;;;;;;;15.60;2.67;;;5.10;99.90;;;;;;5128148;27;20074;-75
2024/02/07 03:19:49;;;;;;;15.35;3.22;;;5.10;99.90;;;;;;5111933;27;20182;-76
2024/02/07 03:22:15;;;;;;;16.10;3.40;;;5.10;99.90;;;;;;5126817;27;20046;-75
2024/02/07 03:24:41;;;;;;;17.45;3.65;;;5.20;99.90;;;;;;5113499;27;20469;-75
2024/02/07 03:27:09;;;;;;;20.95;3.78;;;5.20;99.90;;;;;;5129608;27;20118;-75
2024/02/07 03:29:37;;;;;;;26.33;4.22;;;5.10;99.90;;;;;;5125442;27;20031;-75
2024/02/07 03:32:03;;;;;;;18.88;3.88;;;5.20;99.90;;;;;;5112376;27;20504;-76
2024/02/07 03:34:30;;;;;;;18.45;3.38;;;5.20;99.90;;;;;;5114811;27;20049;-76
2024/02/07 03:36:56;;;;;;;21.45;4.03;;;5.20;99.90;;;;;;5128919;27;20095;-76
2024/02/07 03:39:22;;;;;;;18.67;3.83;;;5.20;99.90;;;;;;5134607;27;20374;-75
2024/02/07 03:41:49;;;;;;;20.33;3.75;;;5.20;99.90;;;;;;5115476;27;20099;-76
2024/02/07 03:44:14;;;;;;;18.77;3.20;;;5.20;99.90;;;;;;5131080;27;20050;-75
2024/02/07 03:46:40;;;;;;;17.63;3.15;;;5.10;99.90;;;;;;5117638;27;20401;-76
2024/02/07 03:49:07;;;;;;;21.33;3.78;;;5.20;99.90;;;;;;5128708;27;20047;-73
2024/02/07 03:51:35;;;;;;;22.75;5.28;;;5.30;99.90;;;;;;5113343;27;20616;-74
2024/02/07 03:54:04;;;;;;;17.83;3.72;;;5.20;99.90;;;;;;5110499;27;20041;-74
2024/02/07 03:56:33;;;;;;;18.02;4.15;;;5.20;99.90;;;;;;5112407;27;20442;-74
2024/02/07 03:58:58;;;;;;;25.83;5.05;;;5.20;99.90;;;;;;5111515;27;20508;-74
2024/02/07 04:01:24;;;;;;;22.00;4.65;;;5.20;99.90;;;;;;5114248;27;20031;-73
2024/02/07 04:03:52;;;;;;;22.67;4.70;;;5.20;99.90;;;;;;5127757;27;20060;-73
2024/02/07 04:06:18;;;;;;;22.52;4.43;;;5.20;99.90;;;;;;5130030;27;20133;-73
2024/02/07 04:08:44;;;;;;;24.52;4.65;;;5.20;99.90;;;;;;5135375;27;20385;-73
2024/02/07 05:16:34;;;;;;;21.73;4.90;;;5.10;99.90;;;;;;5123564;27;20074;-76
2024/02/07 05:19:01;;;;;;;26.83;5.35;;;5.10;99.90;;;;;;5126470;27;20065;-76
2024/02/07 05:21:27;;;;;;;25.73;5.03;;;5.00;99.90;;;;;;5120689;27;20043;-76
2024/02/07 05:23:53;;;;;;;28.58;5.80;;;5.00;99.90;;;;;;5126628;27;20365;-77
2024/02/07 05:26:19;;;;;;;20.35;6.40;;;5.00;99.90;;;;;;5125999;27;20135;-76
2024/02/07 05:28:45;;;;;;;28.40;6.35;;;5.00;99.90;;;;;;5125845;27;20193;-76
2024/02/07 05:31:11;;;;;;;19.67;4.45;;;4.90;99.90;;;;;;5114132;27;20031;-76
2024/02/07 05:33:39;;;;;;;25.33;5.07;;;5.00;99.90;;;;;;5128714;27;20042;-75
2024/02/07 05:36:05;;;;;;;24.75;4.45;;;4.90;99.90;;;;;;5122419;27;20374;-77
2024/02/07 05:38:34;;;;;;;22.15;4.50;;;4.90;99.90;;;;;;5110181;27;20053;-75
2024/02/07 05:41:01;;;;;;;20.83;4.25;;;4.90;99.90;;;;;;5124141;27;20042;-75
2024/02/07 05:43:27;;;;;;;20.83;4.65;;;4.90;99.90;;;;;;5111629;27;20030;-75
2024/02/07 05:45:55;;;;;;;24.13;4.60;;;4.90;99.90;;;;;;5121084;27;20546;-76
2024/02/07 05:48:21;;;;;;;19.15;4.05;;;4.80;99.90;;;;;;5106005;27;20125;-76
2024/02/07 05:50:46;;;;;;;22.00;4.65;;;4.80;99.90;;;;;;5109371;27;20121;-76
2024/02/07 05:53:13;;;;;;;18.67;4.18;;;4.80;99.90;;;;;;5128921;27;20038;-77
2024/02/07 05:55:38;;;;;;;25.35;5.03;;;4.80;99.90;;;;;;5101700;27;20043;-77
2024/02/07 05:58:05;;;;;;;24.70;5.13;;;4.80;99.90;;;;;;5125732;27;20062;-76
2024/02/07 06:00:31;;;;;;;18.33;4.05;;;4.80;99.90;;;;;;5123861;27;20564;-76
2024/02/07 06:02:57;;;;;;;25.42;4.70;;;4.80;99.90;;;;;;5107801;27;20114;-76
2024/02/07 06:05:23;;;;;;;18.27;3.97;;;4.70;99.90;;;;;;5107460;27;20460;-76
2024/02/07 06:08:03;;;;;;;21.38;4.22;;;4.70;99.90;;;;;;5106440;27;20042;-76
2024/02/07 06:10:29;;;;;;;24.50;4.40;;;4.70;99.90;;;;;;5121816;27;21433;-76
2024/02/07 06:12:55;;;;;;;21.92;4.47;;;4.70;99.90;;;;;;5107262;27;20496;-73
2024/02/07 06:15:21;;;;;;;21.70;5.20;;;4.60;99.90;;;;;;5112156;27;20031;-73
2024/02/07 06:17:47;;;;;;;22.38;5.05;;;4.60;99.90;;;;;;5105405;27;20039;-72
2024/02/07 06:20:13;;;;;;;21.85;4.45;;;4.50;99.90;;;;;;5109052;27;20488;-72
2024/02/07 06:22:45;;;;;;;23.73;4.63;;;4.50;99.90;;;;;;5126214;27;20038;-72
2024/02/07 06:25:11;;;;;;;20.42;4.70;;;4.50;99.90;;;;;;5108571;27;20433;-73
2024/02/07 06:27:36;;;;;;;24.55;4.68;;;4.50;99.90;;;;;;5126964;27;20030;-73
2024/02/07 06:30:02;;;;;;;20.67;3.60;;;4.50;99.90;;;;;;5105021;27;20118;-74
2024/02/07 06:32:28;;;;;;;16.55;3.88;;;4.50;99.90;;;;;;5126897;27;20056;-73
2024/02/07 06:34:54;;;;;;;19.88;3.97;;;4.50;99.90;;;;;;5121183;27;20043;-73
2024/02/07 06:37:20;;;;;;;15.45;3.35;;;4.40;99.90;;;;;;5124540;27;20054;-76
2024/02/07 06:39:45;;;;;;;23.45;3.97;;;4.40;99.90;;;;;;5103961;27;20031;-73
2024/02/07 06:42:11;;;;;;;18.48;3.38;;;4.40;99.90;;;;;;5101923;27;20430;-73
2024/02/07 06:44:37;;;;;;;22.35;4.05;;;4.30;99.90;;;;;;5117867;27;20083;-73
2024/02/07 06:47:03;;;;;;;22.55;3.90;;;4.40;99.90;;;;;;5107330;27;20562;-73
2024/02/07 06:49:33;;;;;;;16.08;3.53;;;4.30;99.90;;;;;;5124433;27;20046;-72
2024/02/07 06:51:59;;;;;;;17.48;3.10;;;4.30;99.90;;;;;;5105788;27;20066;-73
2024/02/07 06:54:24;;;;;;;22.23;4.25;;;4.30;99.90;;;;;;5106821;27;20081;-77
2024/02/07 06:56:50;;;;;;;18.95;4.20;;;4.40;99.90;;;;;;5110155;27;20043;-78
2024/02/07 06:59:16;;;;;;;17.40;3.83;;;4.30;99.90;;;;;;5129270;27;20042;-77
2024/02/07 07:01:41;;;;;;;21.85;4.30;;;4.20;99.90;;;;;;5113335;27;20046;-77
2024/02/07 07:04:07;;;;;;;18.10;3.72;;;4.30;99.90;;;;;;5129415;27;20723;-77
2024/02/07 07:06:33;;;;;;;19.83;3.85;;;4.20;99.90;;;;;;5123397;27;20129;-77
2024/02/07 07:08:59;;;;;;;17.77;3.92;;;4.20;99.90;;;;;;5112909;27;20035;-77
2024/02/07 07:11:24;;;;;;;22.70;4.63;;;4.20;99.90;;;;;;5100977;27;20511;-78
2024/02/07 07:13:50;;;;;;;16.77;4.07;;;4.20;99.90;;;;;;5116213;27;20097;-76
2024/02/07 07:16:19;;;;;;;20.98;4.55;;;4.20;99.90;;;;;;5110175;27;20362;-76
2024/02/07 07:18:44;;;;;;;20.70;4.38;;;4.20;99.90;;;;;;5111883;27;20071;-76
2024/02/07 07:21:10;;;;;;;18.95;4.05;;;4.20;99.90;;;;;;5125870;27;20540;-76
2024/02/07 07:23:36;;;;;;;24.05;3.72;;;4.10;99.90;;;;;;5107922;27;20043;-76
2024/02/07 07:26:02;;;;;;;13.80;3.13;;;4.10;99.90;;;;;;5126148;27;20055;-76
2024/02/07 07:28:28;;;;;;;15.80;3.00;;;4.10;99.90;;;;;;5112414;27;20411;-77
2024/02/07 07:30:57;;;;;;;17.00;3.67;;;4.10;99.90;;;;;;5132084;27;20136;-77
2024/02/07 07:33:23;;;;;;;16.05;3.65;;;4.10;99.90;;;;;;5112190;27;20073;-77
2024/02/07 07:35:49;;;;;;;20.15;4.60;;;4.10;99.90;;;;;;5107521;27;20535;-77
2024/02/07 07:38:14;;;;;;;18.08;3.50;;;4.10;99.90;;;;;;5126479;27;20155;-77
2024/02/07 07:40:41;;;;;;;23.35;3.75;;;4.10;99.90;;;;;;5126850;27;20485;-77
2024/02/07 07:43:07;;;;;;;18.05;3.67;;;4.10;99.90;;;;;;5125816;27;20050;-77
2024/02/07 07:45:33;;;;;;;14.95;3.25;;;4.10;99.90;;;;;;5111764;27;20042;-78
2024/02/07 07:47:59;;;;;;;23.30;3.75;;;4.10;99.90;;;;;;5109007;27;20041;-77
2024/02/07 07:50:25;;;;;;;15.60;3.00;;;4.10;99.90;;;;;;5109498;27;20388;-77
2024/02/07 07:52:51;;;;;;;17.45;3.90;;;4.10;99.90;;;;;;5127969;27;20488;-78
2024/02/07 07:55:17;;;;;;;17.13;4.13;;;4.00;99.90;;;;;;5129428;27;20039;-77
2024/02/07 07:57:43;;;;;;;17.30;3.25;;;4.10;99.90;;;;;;5109735;27;20092;-77
2024/02/07 08:00:09;;;;;;;13.77;3.45;;;4.10;99.90;;;;;;5125540;27;20049;-78
2024/02/07 08:02:34;;;;;;;16.75;3.30;;;4.10;99.90;;;;;;5110084;27;20478;-78
2024/02/07 08:05:00;;;;;;;19.80;4.38;;;4.10;99.90;;;;;;5110490;27;20161;-78
2024/02/07 08:07:26;;;;;;;17.33;3.30;;;4.10;99.90;;;;;;5109140;27;20042;-78
2024/02/07 08:09:52;;;;;;;16.90;3.67;;;4.10;99.90;;;;;;5124332;27;20126;-78
2024/02/07 08:12:18;;;;;;;13.95;3.40;;;4.10;99.90;;;;;;5112223;27;20037;-78
2024/02/07 08:14:44;;;;;;;16.25;3.35;;;4.10;99.90;;;;;;5107866;27;20137;-78
2024/02/07 08:17:15;;;;;;;18.30;3.75;;;4.10;99.90;;;;;;5112876;27;20571;-78
2024/02/07 08:19:41;;;;;;;21.33;3.65;;;4.20;99.90;;;;;;5126582;27;20054;-78
2024/02/07 08:22:09;;;;;;;18.02;3.47;;;4.20;99.90;;;;;;5110944;27;20475;-78
2024/02/07 08:24:34;;;;;;;19.48;4.10;;;4.20;99.90;;;;;;5123397;27;20038;-77
2024/02/07 08:27:00;;;;;;;18.55;3.25;;;4.20;99.90;;;;;;5133113;27;20034;-77
2024/02/07 08:29:29;;;;;;;19.50;3.78;;;4.20;99.90;;;;;;5110284;27;20050;-78
2024/02/07 08:31:56;;;;;;;18.00;3.90;;;4.20;99.90;;;;;;5122360;27;20038;-77
2024/02/07 08:34:22;;;;;;;17.70;3.53;;;4.20;99.90;;;;;;5107549;27;20073;-77
2024/02/07 08:36:48;;;;;;;22.30;4.22;;;4.20;99.90;;;;;;5111900;27;20049;-77
2024/02/07 08:39:14;;;;;;;16.85;3.67;;;4.30;99.90;;;;;;5108333;27;20046;-77
2024/02/07 08:41:43;;;;;;;19.42;4.10;;;4.30;99.90;;;;;;5129473;27;20046;-77
2024/02/07 08:44:09;;;;;;;20.98;3.90;;;4.30;99.90;;;;;;5121459;27;20087;-77
2024/02/07 08:46:35;;;;;;;21.17;3.60;;;4.40;99.90;;;;;;5128461;27;20042;-78
2024/02/07 08:49:01;;;;;;;16.00;4.40;;;4.40;99.90;;;;;;5130008;27;20037;-77
2024/02/07 08:51:26;;;;;;;15.27;3.15;;;4.40;99.90;;;;;;5109231;27;20034;-78
2024/02/07 08:53:52;;;;;;;17.60;4.40;;;4.50;99.90;;;;;;5110974;27;20524;-77
2024/02/07 08:56:18;;;;;;;24.00;4.55;;;4.50;99.90;;;;;;5109360;27;20528;-77
2024/02/07 08:58:43;;;;;;;11.43;3.30;;;4.50;99.90;;;;;;5112997;27;20038;-77
2024/02/07 09:01:09;;;;;;;23.63;3.92;;;4.50;99.90;;;;;;5125467;27;20158;-77
2024/02/07 09:03:36;;;;;;;13.88;3.42;;;4.60;99.90;;;;;;5134051;22;20046;-76
2024/02/07 09:06:02;;;;;;;22.70;4.47;;;4.60;99.90;;;;;;5096852;28;20129;-78
2024/02/07 09:08:28;;;;;;;20.27;4.22;;;4.60;99.90;;;;;;5101348;28;20093;-77
2024/02/07 09:10:56;;;;;;;18.88;3.63;;;4.70;99.90;;;;;;5084850;28;20039;-77
2024/02/07 09:13:21;;;;;;;19.20;4.22;;;4.70;99.90;;;;;;5103695;28;20522;-77
2024/02/07 09:15:47;;;;;;;15.95;3.53;;;4.70;99.90;;;;;;5088251;28;20036;-77
2024/02/07 09:18:13;;;;;;;14.73;3.40;;;4.80;99.90;;;;;;5105203;28;20043;-77
2024/02/07 09:20:39;;;;;;;20.85;4.20;;;4.70;99.90;;;;;;5104691;28;20489;-77
2024/02/07 09:23:05;;;;;;;14.77;3.53;;;4.80;99.90;;;;;;5104975;28;20043;-77
2024/02/07 09:25:31;;;;;;;21.80;4.22;;;4.80;99.90;;;;;;5107027;28;20489;-77
2024/02/07 09:27:57;;;;;;;15.68;3.40;;;4.80;99.90;;;;;;5106514;28;20054;-77
2024/02/07 09:30:23;;;;;;;16.40;3.45;;;4.90;99.90;;;;;;5077696;28;20048;-77
2024/02/07 09:32:49;;;;;;;15.02;3.58;;;4.90;99.90;;;;;;5077670;28;20055;-77
2024/02/07 09:35:14;;;;;;;14.20;3.17;;;4.90;99.90;;;;;;5086988;28;20501;-76
2024/02/07 09:37:41;;;;;;;13.75;3.15;;;5.00;99.90;;;;;;5106920;28;20055;-77
2024/02/07 09:40:08;;;;;;;14.60;3.58;;;5.10;99.90;;;;;;5098793;28;20043;-77
2024/02/07 09:42:38;;;;;;;16.42;3.85;;;5.10;99.90;;;;;;5087340;28;20055;-77
2024/02/07 09:45:05;;;;;;;17.40;4.30;;;5.10;99.90;;;;;;5087968;28;20415;-77
2024/02/07 09:47:39;;;;;;;17.88;3.63;;;5.10;99.90;;;;;;5105777;28;20648;-77
2024/02/07 09:50:07;;;;;;;13.43;3.28;;;5.20;99.90;;;;;;5092814;28;20047;-77
2024/02/07 09:52:34;;;;;;;16.15;3.60;;;5.20;99.90;;;;;;5086998;28;20040;-77
2024/02/07 09:55:04;;;;;;;14.52;2.90;;;5.30;99.90;;;;;;5107233;28;20035;-76
2024/02/07 09:57:30;;;;;;;15.00;3.40;;;5.30;99.90;;;;;;5088291;28;20051;-76
2024/02/07 09:59:56;;;;;;;14.80;3.13;;;5.40;99.90;;;;;;5083337;28;20839;-76
2024/02/07 10:02:23;;;;;;;14.23;3.13;;;5.40;99.90;;;;;;5090818;28;20039;-75
2024/02/07 10:04:52;;;;;;;17.23;3.70;;;5.40;99.90;;;;;;5082233;28;20048;-75
2024/02/07 10:07:21;;;;;;;20.30;3.45;;;5.50;99.90;;;;;;5084206;28;20054;-76
2024/02/07 10:09:52;;;;;;;15.68;3.35;;;5.50;99.90;;;;;;5087257;28;20067;-75
2024/02/07 10:12:19;;;;;;;15.30;3.03;;;5.50;99.90;;;;;;5086651;28;20517;-75
2024/02/07 10:14:48;;;;;;;12.98;2.55;;;5.50;99.90;;;;;;5085339;28;20036;-75
2024/02/07 10:17:13;;;;;;;14.27;3.08;;;5.50;99.90;;;;;;5105819;28;20517;-75
2024/02/07 10:19:40;;;;;;;14.82;3.40;;;5.50;99.90;;;;;;5100472;28;20051;-75
2024/02/07 10:22:20;;;;;;;16.40;3.97;;;5.60;99.90;;;;;;5087954;28;20043;-76
2024/02/07 10:24:46;;;;;;;14.10;3.33;;;5.60;99.90;;;;;;5104050;28;21445;-77
2024/02/07 10:27:30;;;;;;;16.58;3.22;;;5.70;99.90;;;;;;5098856;28;20120;-77
2024/02/07 10:30:04;;;;;;;15.70;3.38;;;5.70;99.90;;;;;;5087477;28;20048;-76
2024/02/07 10:32:29;;;;;;;17.60;3.40;;;5.80;99.90;;;;;;5101089;28;20794;-77
2024/02/07 10:34:55;;;;;;;11.65;2.97;;;5.80;99.90;;;;;;5091420;28;20039;-76
2024/02/07 10:37:21;;;;;;;14.65;4.15;;;5.80;99.90;;;;;;5109381;28;20213;-77
2024/02/07 10:39:49;;;;;;;11.30;3.60;;;5.80;99.90;;;;;;5109003;28;20371;-77
2024/02/07 10:42:15;;;;;;;15.35;3.55;;;5.80;99.90;;;;;;5092617;28;20501;-78
2024/02/07 10:44:41;;;;;;;22.42;8.00;;;5.80;99.90;;;;;;5089813;28;20166;-77
2024/02/07 10:47:09;;;;;;;12.73;3.63;;;5.80;99.90;;;;;;5101021;28;20122;-77
2024/02/07 10:49:35;;;;;;;15.82;3.95;;;5.80;99.90;;;;;;5089925;28;20052;-77
2024/02/07 10:52:02;;;;;;;13.82;3.47;;;5.80;99.90;;;;;;5089913;28;20118;-77
2024/02/07 10:54:29;;;;;;;18.35;3.75;;;5.80;99.90;;;;;;5089591;28;20058;-78
2024/02/07 10:56:59;;;;;;;11.52;2.80;;;5.70;99.90;;;;;;5100745;28;20040;-78
2024/02/07 10:59:25;;;;;;;;;;;5.80;99.90;;;;;;5109142;28;20039;-78
2024/02/07 11:01:51;;;;;;;15.45;3.72;;;5.80;99.90;;;;;;5106872;28;19930;-78
2024/02/07 11:04:17;;;;;;;13.85;3.28;;;5.90;99.90;;;;;;5105099;28;20050;-76
2024/02/07 11:06:44;;;;;;;15.05;3.13;;;5.90;99.90;;;;;;5090101;28;20040;-77
2024/02/07 11:09:11;;;;;;;11.60;2.63;;;6.00;99.90;;;;;;5091992;28;20529;-77
2024/02/07 11:11:37;;;;;;;14.65;3.03;;;6.00;99.90;;;;;;5089732;28;20079;-77
2024/02/07 11:14:05;;;;;;;12.95;2.80;;;6.00;99.90;;;;;;5108258;28;20120;-77
2024/02/07 11:16:31;;;;;;;15.98;2.78;;;6.10;99.90;;;;;;5092082;28;20057;-77
2024/02/07 11:18:58;;;;;;;12.30;2.38;;;6.10;99.90;;;;;;5077321;28;20078;-77
2024/02/07 11:21:33;;;;;;;14.55;2.72;;;6.10;99.90;;;;;;5090172;28;20284;-77
2024/02/07 11:24:06;;;;;;;13.77;2.88;;;6.20;99.90;;;;;;5085349;28;20062;-77
2024/02/07 11:26:33;;;;;;;14.20;3.20;;;6.20;99.90;;;;;;5102504;28;20044;-77
2024/02/07 11:28:59;;;;;;;13.45;2.50;;;6.20;99.90;;;;;;5091521;28;20350;-76
2024/02/07 11:31:25;;;;;;;14.10;2.63;;;6.30;99.90;;;;;;5084235;28;20485;-77
2024/02/07 11:33:53;;;;;;;10.98;2.38;;;6.30;99.90;;;;;;5092084;28;20043;-77
2024/02/07 11:36:20;;;;;;;14.00;3.03;;;6.40;99.90;;;;;;5089003;28;20519;-77
2024/02/07 11:38:54;;;;;;;14.48;2.97;;;6.20;99.90;;;;;;5108507;28;20388;-77
2024/02/07 11:41:19;;;;;;;18.25;3.50;;;6.30;99.90;;;;;;5108149;28;20168;-77
2024/02/07 11:43:47;;;;;;;16.48;3.97;;;6.30;99.90;;;;;;5107434;28;20055;-77
2024/02/07 11:46:16;;;;;;;10.35;2.40;;;6.20;99.90;;;;;;5087262;28;20676;-77
2024/02/07 11:48:42;;;;;;;17.27;3.40;;;6.30;99.90;;;;;;5090648;28;20056;-78
2024/02/07 11:51:11;;;;;;;10.52;2.42;;;6.30;99.90;;;;;;5140289;27;20043;-77
2024/02/07 11:53:39;;;;;;;13.05;2.83;;;6.30;99.90;;;;;;5090469;28;20510;-78
2024/02/07 11:56:12;;;;;;;13.18;2.78;;;6.30;99.90;;;;;;5090177;28;20521;-78
2024/02/07 11:58:40;;;;;;;14.77;3.13;;;6.40;99.90;;;;;;5086760;28;20105;-78
2024/02/07 12:01:13;;;;;;;10.43;2.85;;;6.40;99.90;;;;;;5092720;28;20043;-78
2024/02/07 12:03:39;;;;;;;12.88;3.30;;;6.30;99.90;;;;;;5088320;28;20046;-79
2024/02/07 12:06:09;;;;;;;12.13;2.70;;;6.40;99.90;;;;;;5090770;28;20039;-79
2024/02/07 12:08:38;;;;;;;12.25;2.30;;;6.40;99.90;;;;;;5105852;28;20615;-79
2024/02/07 12:11:05;;;;;;;13.23;2.97;;;6.40;99.90;;;;;;5108111;28;20040;-78
2024/02/07 12:13:33;;;;;;;11.52;2.40;;;6.60;99.90;;;;;;5105413;28;20498;-78
2024/02/07 12:16:05;;;;;;;14.50;3.00;;;6.60;99.90;;;;;;5108856;28;20126;-78
2024/02/07 12:18:34;;;;;;;12.00;2.53;;;6.70;99.90;;;;;;5099327;28;20040;-77
2024/02/07 12:21:04;;;;;;;8.85;2.20;;;6.80;99.90;;;;;;5099843;28;20348;-78
2024/02/07 12:23:34;;;;;;;10.80;2.50;;;6.90;99.90;;;;;;5089889;28;20398;-78
2024/02/07 12:26:01;;;;;;;14.43;2.72;;;6.90;99.90;;;;;;5106799;28;20047;-78
2024/02/07 12:28:28;;;;;;;12.65;2.25;;;6.80;99.90;;;;;;5095031;28;20051;-78
2024/02/07 12:30:58;;;;;;;9.30;2.50;;;6.80;99.90;;;;;;5074575;28;20517;-78
2024/02/07 12:33:25;;;;;;;10.52;2.50;;;6.70;99.90;;;;;;5083713;28;20112;-78
2024/02/07 12:35:55;;;;;;;11.88;2.38;;;6.60;99.90;;;;;;5105641;28;20052;-78
2024/02/07 12:38:22;;;;;;;10.18;2.42;;;6.60;99.90;;;;;;5090454;28;20816;-78
2024/02/07 12:40:50;;;;;;;10.70;2.53;;;6.50;99.90;;;;;;5088546;28;20040;-77
2024/02/07 12:43:22;;;;;;;10.15;2.00;;;6.50;99.90;;;;;;5090879;28;20035;-78
2024/02/07 12:45:56;;;;;;;11.77;2.65;;;6.40;99.90;;;;;;5088322;28;20134;-78
2024/02/07 12:48:22;;;;;;;8.43;1.80;;;6.50;99.90;;;;;;5078012;28;20051;-78
2024/02/07 12:50:49;;;;;;;11.20;2.65;;;6.40;99.90;;;;;;5090182;28;20168;-78
2024/02/07 12:53:17;;;;;;;11.35;2.15;;;6.40;99.90;;;;;;5106417;28;20065;-79
2024/02/07 12:55:49;;;;;;;9.38;2.20;;;6.50;99.90;;;;;;5104556;28;20065;-80
2024/02/07 12:58:16;;;;;;;9.63;2.38;;;6.50;99.90;;;;;;5092000;28;20371;-76
2024/02/07 13:00:45;;;;;;;10.20;2.42;;;6.50;99.90;;;;;;5083637;28;20047;-77
2024/02/07 13:03:12;;;;;;;14.25;2.53;;;6.60;99.90;;;;;;5088528;28;20040;-77
2024/02/07 13:05:41;;;;;;;10.27;2.22;;;6.60;99.90;;;;;;5078084;28;20046;-77
2024/02/07 13:08:11;;;;;;;8.82;2.05;;;6.60;99.90;;;;;;5086564;28;20529;-76
2024/02/07 13:10:38;;;;;;;11.77;2.10;;;6.70;99.90;;;;;;5093521;28;20047;-77
2024/02/07 13:13:04;;;;;;;8.48;2.20;;;6.70;99.90;;;;;;5107002;28;20612;-77
2024/02/07 13:15:29;;;;;;;13.05;1.95;;;6.70;99.90;;;;;;5104181;28;20558;-77
2024/02/07 13:17:55;;;;;;;12.00;2.45;;;6.80;99.90;;;;;;5072156;28;20040;-76
2024/02/07 13:20:24;;;;;;;12.98;2.38;;;6.80;99.90;;;;;;5078372;28;20100;-75
2024/02/07 13:22:50;;;;;;;11.07;2.47;;;6.80;99.90;;;;;;5078427;28;20328;-75
2024/02/07 13:25:16;;;;;;;11.77;2.70;;;6.80;99.90;;;;;;5078578;28;20071;-75
2024/02/07 13:27:42;;;;;;;8.70;1.80;;;6.80;99.90;;;;;;5101547;28;20276;-77
2024/02/07 13:30:09;;;;;;;14.00;2.45;;;6.80;99.90;;;;;;5081718;28;20482;-75
2024/02/07 13:32:35;;;;;;;9.18;2.05;;;6.70;99.90;;;;;;5071676;28;20040;-75
2024/02/07 13:35:03;;;;;;;9.07;2.20;;;6.70;99.90;;;;;;5083545;28;20083;-75
2024/02/07 13:37:29;;;;;;;14.48;2.35;;;6.70;99.90;;;;;;5113179;27;20060;-75
2024/02/07 13:39:55;;;;;;;9.38;2.13;;;6.60;99.90;;;;;;5087352;28;20043;-76
2024/02/07 13:42:21;;;;;;;8.50;2.30;;;6.60;99.90;;;;;;5090624;28;20413;-76
2024/02/07 13:44:47;;;;;;;8.93;1.73;;;6.60;99.90;;;;;;5092256;28;20082;-76
2024/02/07 13:47:13;;;;;;;10.65;1.95;;;6.60;99.90;;;;;;5092168;28;20040;-76
2024/02/07 13:49:39;;;;;;;9.32;2.05;;;6.60;99.90;;;;;;5090955;28;20051;-76
2024/02/07 13:52:05;;;;;;;8.20;1.60;;;6.60;99.90;;;;;;5089360;28;20067;-76